sensor_id;sensor_type;location;lat;lon;timestamp;pressure;altitude;pressure_sealevel;temperature;humidity
58385;BME280;44185;47.844;8.966;2023-04-25T00:00:58;95646.03;;;5.09;100.00
58385;BME280;44185;47.844;8.966;2023-04-25T00:03:23;95643.75;;;5.04;100.00
58385;BME280;44185;47.844;8.966;2023-04-25T00:05:49;95648.66;;;5.09;100.00
58385;BME280;44185;47.844;8.966;2023-04-25T00:08:14;95650.94;;;5.14;100.00
58385;BME280;44185;47.844;8.966;2023-04-25T00:10:40;95635.56;;;5.20;100.00
58385;BME280;44185;47.844;8.966;2023-04-25T00:13:05;95639.44;;;5.03;100.00
58385;BME280;44185;47.844;8.966;2023-04-25T00:15:32;95643.75;;;5.04;100.00
58385;BME280;44185;47.844;8.966;2023-04-25T00:17:57;95627.94;;;5.17;100.00
58385;BME280;44185;47.844;8.966;2023-04-25T00:20:23;95624.13;;;5.21;100.00
58385;BME280;44185;47.844;8.966;2023-04-25T00:22:49;95619.34;;;5.15;100.00
58385;BME280;44185;47.844;8.966;2023-04-25T00:25:14;95610.38;;;5.06;100.00
58385;BME280;44185;47.844;8.966;2023-04-25T00:27:40;95616.75;;;4.91;100.00
58385;BME280;44185;47.844;8.966;2023-04-25T00:30:06;95620.47;;;4.50;100.00
58385;BME280;44185;47.844;8.966;2023-04-25T00:32:33;95623.78;;;4.28;100.00
58385;BME280;44185;47.844;8.966;2023-04-25T00:34:59;95618.31;;;4.31;100.00
58385;BME280;44185;47.844;8.966;2023-04-25T00:37:24;95614.06;;;4.54;100.00
58385;BME280;44185;47.844;8.966;2023-04-25T00:39:50;95606.81;;;4.58;100.00
58385;BME280;44185;47.844;8.966;2023-04-25T00:42:16;95607.53;;;4.60;100.00
58385;BME280;44185;47.844;8.966;2023-04-25T00:44:42;95604.34;;;4.68;100.00
58385;BME280;44185;47.844;8.966;2023-04-25T00:47:10;95608.47;;;4.59;100.00
58385;BME280;44185;47.844;8.966;2023-04-25T00:49:37;95606.31;;;4.53;100.00
58385;BME280;44185;47.844;8.966;2023-04-25T00:52:03;95606.09;;;4.56;100.00
58385;BME280;44185;47.844;8.966;2023-04-25T00:54:29;95615.75;;;4.55;100.00
58385;BME280;44185;47.844;8.966;2023-04-25T00:56:54;95611.09;;;4.59;100.00
58385;BME280;44185;47.844;8.966;2023-04-25T00:59:20;95604.19;;;4.58;100.00
58385;BME280;44185;47.844;8.966;2023-04-25T01:01:46;95596.78;;;4.52;100.00
58385;BME280;44185;47.844;8.966;2023-04-25T01:06:44;95602.19;;;4.62;100.00
58385;BME280;44185;47.844;8.966;2023-04-25T01:09:10;95594.09;;;4.65;100.00
58385;BME280;44185;47.844;8.966;2023-04-25T01:11:35;95586.97;;;4.67;100.00
58385;BME280;44185;47.844;8.966;2023-04-25T01:14:01;95595.06;;;4.64;100.00
58385;BME280;44185;47.844;8.966;2023-04-25T01:16:26;95590.75;;;4.63;100.00
58385;BME280;44185;47.844;8.966;2023-04-25T01:18:52;95587.28;;;4.62;100.00
58385;BME280;44185;47.844;8.966;2023-04-25T01:21:19;95590.75;;;4.63;100.00
58385;BME280;44185;47.844;8.966;2023-04-25T01:23:45;95591.88;;;4.47;100.00
58385;BME280;44185;47.844;8.966;2023-04-25T01:26:11;95597.28;;;4.57;100.00
58385;BME280;44185;47.844;8.966;2023-04-25T01:28:37;95589.75;;;4.52;100.00
58385;BME280;44185;47.844;8.966;2023-04-25T01:31:03;95587.50;;;4.59;100.00
58385;BME280;44185;47.844;8.966;2023-04-25T01:33:29;95591.59;;;4.63;100.00
58385;BME280;44185;47.844;8.966;2023-04-25T01:35:55;95582.97;;;4.74;100.00
58385;BME280;44185;47.844;8.966;2023-04-25T01:38:21;95588.06;;;4.76;100.00
58385;BME280;44185;47.844;8.966;2023-04-25T01:40:49;95586.44;;;4.86;100.00
58385;BME280;44185;47.844;8.966;2023-04-25T01:43:15;95593.59;;;4.84;100.00
58385;BME280;44185;47.844;8.966;2023-04-25T01:45:41;95589.56;;;4.92;100.00
58385;BME280;44185;47.844;8.966;2023-04-25T01:48:07;95586.22;;;4.89;100.00
58385;BME280;44185;47.844;8.966;2023-04-25T01:50:33;95583.25;;;4.94;100.00
58385;BME280;44185;47.844;8.966;2023-04-25T01:52:58;95581.91;;;4.88;100.00
58385;BME280;44185;47.844;8.966;2023-04-25T01:55:25;95586.09;;;4.91;100.00
58385;BME280;44185;47.844;8.966;2023-04-25T01:57:51;95582.06;;;4.87;100.00
58385;BME280;44185;47.844;8.966;2023-04-25T02:00:17;95587.34;;;4.74;100.00
58385;BME280;44185;47.844;8.966;2023-04-25T02:02:42;95579.88;;;4.81;100.00
58385;BME280;44185;47.844;8.966;2023-04-25T02:05:08;95573.91;;;4.78;100.00
58385;BME280;44185;47.844;8.966;2023-04-25T02:07:33;95561.38;;;4.71;100.00
58385;BME280;44185;47.844;8.966;2023-04-25T02:09:59;95564.97;;;4.56;100.00
58385;BME280;44185;47.844;8.966;2023-04-25T02:12:26;95560.72;;;4.55;100.00
58385;BME280;44185;47.844;8.966;2023-04-25T02:14:52;95564.97;;;4.56;100.00
58385;BME280;44185;47.844;8.966;2023-04-25T02:17:17;95556.47;;;4.66;100.00
58385;BME280;44185;47.844;8.966;2023-04-25T02:19:43;95544.13;;;4.80;100.00
58385;BME280;44185;47.844;8.966;2023-04-25T02:22:08;95543.91;;;4.83;100.00
58385;BME280;44185;47.844;8.966;2023-04-25T02:24:34;95539.47;;;4.72;100.00
58385;BME280;44185;47.844;8.966;2023-04-25T02:26:59;95547.59;;;4.55;100.00
58385;BME280;44185;47.844;8.966;2023-04-25T02:29:26;95559.38;;;4.50;100.00
58385;BME280;44185;47.844;8.966;2023-04-25T02:31:51;95553.22;;;4.62;100.00
58385;BME280;44185;47.844;8.966;2023-04-25T02:34:17;95558.75;;;4.71;100.00
58385;BME280;44185;47.844;8.966;2023-04-25T02:36:42;95554.13;;;4.74;100.00
58385;BME280;44185;47.844;8.966;2023-04-25T02:39:08;95547.75;;;4.65;100.00
58385;BME280;44185;47.844;8.966;2023-04-25T02:41:34;95549.00;;;4.48;100.00
58385;BME280;44185;47.844;8.966;2023-04-25T02:43:59;95551.78;;;4.33;100.00
58385;BME280;44185;47.844;8.966;2023-04-25T02:46:26;95546.91;;;4.16;100.00
58385;BME280;44185;47.844;8.966;2023-04-25T02:48:51;95543.47;;;4.15;100.00
58385;BME280;44185;47.844;8.966;2023-04-25T02:51:17;95545.69;;;4.08;100.00
58385;BME280;44185;47.844;8.966;2023-04-25T02:53:42;95546.41;;;4.10;100.00
58385;BME280;44185;47.844;8.966;2023-04-25T02:56:08;95550.09;;;4.08;100.00
58385;BME280;44185;47.844;8.966;2023-04-25T02:58:33;95557.31;;;4.04;100.00
58385;BME280;44185;47.844;8.966;2023-04-25T03:00:58;95546.63;;;4.07;100.00
58385;BME280;44185;47.844;8.966;2023-04-25T03:03:25;95553.84;;;4.04;100.00
58385;BME280;44185;47.844;8.966;2023-04-25T03:05:51;95550.34;;;3.78;100.00
58385;BME280;44185;47.844;8.966;2023-04-25T03:08:17;95551.81;;;3.83;100.00
58385;BME280;44185;47.844;8.966;2023-04-25T03:10:42;95552.31;;;3.88;100.00
58385;BME280;44185;47.844;8.966;2023-04-25T03:13:08;95555.69;;;3.77;100.00
58385;BME280;44185;47.844;8.966;2023-04-25T03:15:34;95557.19;;;3.68;100.00
58385;BME280;44185;47.844;8.966;2023-04-25T03:17:59;95544.94;;;3.55;100.00
58385;BME280;44185;47.844;8.966;2023-04-25T03:20:26;95538.25;;;3.38;100.00
58385;BME280;44185;47.844;8.966;2023-04-25T03:22:52;95543.38;;;3.27;100.00
58385;BME280;44185;47.844;8.966;2023-04-25T03:25:17;95550.47;;;3.38;100.00
58385;BME280;44185;47.844;8.966;2023-04-25T03:27:43;95548.59;;;3.40;100.00
58385;BME280;44185;47.844;8.966;2023-04-25T03:30:09;95550.28;;;3.41;100.00
58385;BME280;44185;47.844;8.966;2023-04-25T03:32:35;95548.38;;;3.17;100.00
58385;BME280;44185;47.844;8.966;2023-04-25T03:35:00;95546.81;;;3.14;100.00
58385;BME280;44185;47.844;8.966;2023-04-25T03:37:27;95540.53;;;3.17;100.00
58385;BME280;44185;47.844;8.966;2023-04-25T03:39:52;95541.25;;;3.06;100.00
58385;BME280;44185;47.844;8.966;2023-04-25T03:42:18;95554.63;;;3.01;100.00
58385;BME280;44185;47.844;8.966;2023-04-25T03:44:43;95541.91;;;3.09;100.00
58385;BME280;44185;47.844;8.966;2023-04-25T03:47:09;95539.09;;;3.13;100.00
58385;BME280;44185;47.844;8.966;2023-04-25T03:49:34;95547.66;;;3.15;100.00
58385;BME280;44185;47.844;8.966;2023-04-25T03:52:00;95552.47;;;3.21;100.00
58385;BME280;44185;47.844;8.966;2023-04-25T03:54:27;95539.41;;;3.21;100.00
58385;BME280;44185;47.844;8.966;2023-04-25T03:56:52;95554.78;;;3.26;100.00
58385;BME280;44185;47.844;8.966;2023-04-25T03:59:18;95545.88;;;3.15;100.00
58385;BME280;44185;47.844;8.966;2023-04-25T04:01:43;95539.59;;;3.05;100.00
58385;BME280;44185;47.844;8.966;2023-04-25T04:04:08;95539.81;;;3.02;100.00
58385;BME280;44185;47.844;8.966;2023-04-25T04:06:34;95536.94;;;2.78;100.00
58385;BME280;44185;47.844;8.966;2023-04-25T04:08:59;95536.84;;;2.80;100.00
58385;BME280;44185;47.844;8.966;2023-04-25T04:11:26;95536.84;;;2.93;100.00
58385;BME280;44185;47.844;8.966;2023-04-25T04:13:52;95531.63;;;2.93;100.00
58385;BME280;44185;47.844;8.966;2023-04-25T04:16:17;95526.22;;;2.96;100.00
58385;BME280;44185;47.844;8.966;2023-04-25T04:18:42;95522.41;;;2.87;100.00
58385;BME280;44185;47.844;8.966;2023-04-25T04:21:08;95531.22;;;2.86;100.00
58385;BME280;44185;47.844;8.966;2023-04-25T04:23:34;95527.03;;;2.84;100.00
58385;BME280;44185;47.844;8.966;2023-04-25T04:26:00;95524.00;;;2.90;100.00
58385;BME280;44185;47.844;8.966;2023-04-25T04:28:26;95526.28;;;2.95;100.00
58385;BME280;44185;47.844;8.966;2023-04-25T04:30:52;95517.69;;;2.80;100.00
58385;BME280;44185;47.844;8.966;2023-04-25T04:33:17;95519.59;;;2.91;100.00
58385;BME280;44185;47.844;8.966;2023-04-25T04:35:43;95513.03;;;2.98;100.00
58385;BME280;44185;47.844;8.966;2023-04-25T04:38:08;95524.13;;;3.02;100.00
58385;BME280;44185;47.844;8.966;2023-04-25T04:40:34;95522.03;;;3.07;100.00
58385;BME280;44185;47.844;8.966;2023-04-25T04:42:59;95533.13;;;3.10;100.00
58385;BME280;44185;47.844;8.966;2023-04-25T04:45:26;95525.56;;;3.06;100.00
58385;BME280;44185;47.844;8.966;2023-04-25T04:47:51;95521.38;;;3.03;100.00
58385;BME280;44185;47.844;8.966;2023-04-25T04:50:17;95523.41;;;3.13;100.00
58385;BME280;44185;47.844;8.966;2023-04-25T04:52:42;95522.88;;;3.20;100.00
58385;BME280;44185;47.844;8.966;2023-04-25T04:55:08;95530.91;;;3.30;100.00
58385;BME280;44185;47.844;8.966;2023-04-25T04:57:34;95524.97;;;3.15;100.00
58385;BME280;44185;47.844;8.966;2023-04-25T04:59:59;95525.06;;;3.14;100.00
58385;BME280;44185;47.844;8.966;2023-04-25T05:02:26;95529.25;;;3.16;100.00
58385;BME280;44185;47.844;8.966;2023-04-25T05:04:52;95526.84;;;3.26;100.00
58385;BME280;44185;47.844;8.966;2023-04-25T05:07:18;95528.63;;;3.26;100.00
58385;BME280;44185;47.844;8.966;2023-04-25T05:09:43;95519.81;;;3.27;100.00
58385;BME280;44185;47.844;8.966;2023-04-25T05:12:09;95530.19;;;3.28;100.00
58385;BME280;44185;47.844;8.966;2023-04-25T05:14:34;95525.38;;;3.35;100.00
58385;BME280;44185;47.844;8.966;2023-04-25T05:17:00;95522.75;;;3.35;100.00
58385;BME280;44185;47.844;8.966;2023-04-25T05:19:26;95531.97;;;3.41;100.00
58385;BME280;44185;47.844;8.966;2023-04-25T05:21:52;95527.78;;;3.38;100.00
58385;BME280;44185;47.844;8.966;2023-04-25T05:24:17;95527.78;;;3.25;100.00
58385;BME280;44185;47.844;8.966;2023-04-25T05:26:43;95528.00;;;3.35;100.00
58385;BME280;44185;47.844;8.966;2023-04-25T05:29:08;95539.41;;;3.34;100.00
58385;BME280;44185;47.844;8.966;2023-04-25T05:31:35;95529.22;;;3.42;100.00
58385;BME280;44185;47.844;8.966;2023-04-25T05:34:00;95523.44;;;3.89;100.00
58385;BME280;44185;47.844;8.966;2023-04-25T05:36:27;95531.28;;;4.14;100.00
58385;BME280;44185;47.844;8.966;2023-04-25T05:38:52;95534.28;;;4.34;100.00
58385;BME280;44185;47.844;8.966;2023-04-25T05:41:18;95525.44;;;4.48;100.00
58385;BME280;44185;47.844;8.966;2023-04-25T05:43:43;95521.28;;;4.57;100.00
58385;BME280;44185;47.844;8.966;2023-04-25T05:46:09;95528.06;;;4.84;100.00
58385;BME280;44185;47.844;8.966;2023-04-25T05:48:34;95530.53;;;5.22;100.00
58385;BME280;44185;47.844;8.966;2023-04-25T05:51:00;95524.47;;;5.33;100.00
58385;BME280;44185;47.844;8.966;2023-04-25T05:53:26;95526.50;;;5.29;100.00
58385;BME280;44185;47.844;8.966;2023-04-25T05:55:52;95522.66;;;5.22;100.00
58385;BME280;44185;47.844;8.966;2023-04-25T05:58:17;95528.13;;;5.19;100.00
58385;BME280;44185;47.844;8.966;2023-04-25T06:00:43;95519.56;;;5.28;100.00
58385;BME280;44185;47.844;8.966;2023-04-25T06:03:08;95524.00;;;5.51;100.00
58385;BME280;44185;47.844;8.966;2023-04-25T06:05:34;95530.81;;;5.65;100.00
58385;BME280;44185;47.844;8.966;2023-04-25T06:07:59;95519.09;;;5.92;100.00
58385;BME280;44185;47.844;8.966;2023-04-25T06:10:26;95524.34;;;6.04;100.00
58385;BME280;44185;47.844;8.966;2023-04-25T06:12:51;95524.69;;;6.33;100.00
58385;BME280;44185;47.844;8.966;2023-04-25T06:15:17;95531.63;;;6.56;100.00
58385;BME280;44185;47.844;8.966;2023-04-25T06:17:43;95524.03;;;6.74;100.00
58385;BME280;44185;47.844;8.966;2023-04-25T06:20:09;95530.72;;;6.78;100.00
58385;BME280;44185;47.844;8.966;2023-04-25T06:22:35;95531.75;;;6.66;100.00
58385;BME280;44185;47.844;8.966;2023-04-25T06:25:00;95531.00;;;6.64;100.00
58385;BME280;44185;47.844;8.966;2023-04-25T06:27:27;95525.31;;;6.59;100.00
58385;BME280;44185;47.844;8.966;2023-04-25T06:29:52;95533.88;;;6.39;100.00
58385;BME280;44185;47.844;8.966;2023-04-25T06:32:18;95527.88;;;6.37;100.00
58385;BME280;44185;47.844;8.966;2023-04-25T06:34:43;95529.63;;;6.48;100.00
58385;BME280;44185;47.844;8.966;2023-04-25T06:37:09;95523.50;;;6.59;100.00
58385;BME280;44185;47.844;8.966;2023-04-25T06:39:34;95520.19;;;6.57;100.00
58385;BME280;44185;47.844;8.966;2023-04-25T06:41:59;95521.84;;;6.58;100.00
58385;BME280;44185;47.844;8.966;2023-04-25T06:44:26;95516.78;;;6.66;100.00
58385;BME280;44185;47.844;8.966;2023-04-25T06:46:52;95519.75;;;6.73;100.00
58385;BME280;44185;47.844;8.966;2023-04-25T06:49:17;95523.53;;;6.81;100.00
58385;BME280;44185;47.844;8.966;2023-04-25T06:51:42;95515.19;;;6.75;100.00
58385;BME280;44185;47.844;8.966;2023-04-25T06:54:09;95512.88;;;6.82;100.00
58385;BME280;44185;47.844;8.966;2023-04-25T06:56:35;95512.81;;;6.72;100.00
58385;BME280;44185;47.844;8.966;2023-04-25T06:59:00;95516.09;;;6.64;100.00
58385;BME280;44185;47.844;8.966;2023-04-25T07:01:27;95515.25;;;6.64;100.00
58385;BME280;44185;47.844;8.966;2023-04-25T07:03:52;95526.97;;;6.60;100.00
58385;BME280;44185;47.844;8.966;2023-04-25T07:06:18;95524.28;;;6.50;100.00
58385;BME280;44185;47.844;8.966;2023-04-25T07:08:43;95533.97;;;6.38;100.00
58385;BME280;44185;47.844;8.966;2023-04-25T07:11:09;95543.31;;;6.30;100.00
58385;BME280;44185;47.844;8.966;2023-04-25T07:13:34;95552.13;;;6.29;100.00
58385;BME280;44185;47.844;8.966;2023-04-25T07:16:00;95545.81;;;6.32;100.00
58385;BME280;44185;47.844;8.966;2023-04-25T07:18:26;95552.97;;;6.30;100.00
58385;BME280;44185;47.844;8.966;2023-04-25T07:20:52;95544.91;;;6.10;100.00
58385;BME280;44185;47.844;8.966;2023-04-25T07:23:17;95550.00;;;6.00;100.00
58385;BME280;44185;47.844;8.966;2023-04-25T07:25:43;95563.63;;;5.94;100.00
58385;BME280;44185;47.844;8.966;2023-04-25T07:28:08;95568.50;;;5.87;100.00
58385;BME280;44185;47.844;8.966;2023-04-25T07:30:34;95576.56;;;5.26;100.00
58385;BME280;44185;47.844;8.966;2023-04-25T07:32:59;95576.94;;;4.97;100.00
58385;BME280;44185;47.844;8.966;2023-04-25T07:35:26;95578.78;;;4.72;100.00
58385;BME280;44185;47.844;8.966;2023-04-25T07:37:51;95576.41;;;4.31;100.00
58385;BME280;44185;47.844;8.966;2023-04-25T07:40:17;95580.28;;;4.25;100.00
58385;BME280;44185;47.844;8.966;2023-04-25T07:42:42;95583.91;;;4.11;100.00
58385;BME280;44185;47.844;8.966;2023-04-25T07:45:09;95588.66;;;3.93;100.00
58385;BME280;44185;47.844;8.966;2023-04-25T07:47:35;95588.75;;;3.91;100.00
58385;BME280;44185;47.844;8.966;2023-04-25T07:50:00;95586.59;;;3.85;100.00
58385;BME280;44185;47.844;8.966;2023-04-25T07:52:27;95589.59;;;3.92;100.00
58385;BME280;44185;47.844;8.966;2023-04-25T07:54:52;95594.63;;;3.95;100.00
58385;BME280;44185;47.844;8.966;2023-04-25T07:57:18;95589.72;;;3.90;100.00
58385;BME280;44185;47.844;8.966;2023-04-25T07:59:44;95599.13;;;4.06;100.00
58385;BME280;44185;47.844;8.966;2023-04-25T08:02:09;95592.59;;;3.98;100.00
58385;BME280;44185;47.844;8.966;2023-04-25T08:04:35;95591.44;;;4.16;100.00
58385;BME280;44185;47.844;8.966;2023-04-25T08:07:00;95589.97;;;4.25;100.00
58385;BME280;44185;47.844;8.966;2023-04-25T08:09:27;95592.88;;;4.20;100.00
58385;BME280;44185;47.844;8.966;2023-04-25T08:11:52;95597.28;;;4.19;100.00
58385;BME280;44185;47.844;8.966;2023-04-25T08:14:18;95597.94;;;4.10;100.00
58385;BME280;44185;47.844;8.966;2023-04-25T08:16:43;95600.56;;;4.10;100.00
58385;BME280;44185;47.844;8.966;2023-04-25T08:19:09;95603.81;;;4.14;100.00
58385;BME280;44185;47.844;8.966;2023-04-25T08:21:34;95604.94;;;4.22;100.00
58385;BME280;44185;47.844;8.966;2023-04-25T08:24:00;95601.06;;;4.15;100.00
58385;BME280;44185;47.844;8.966;2023-04-25T08:26:28;95605.59;;;4.13;100.00
58385;BME280;44185;47.844;8.966;2023-04-25T08:28:54;95607.88;;;4.18;100.00
58385;BME280;44185;47.844;8.966;2023-04-25T08:31:19;95610.28;;;4.21;100.00
58385;BME280;44185;47.844;8.966;2023-04-25T08:33:45;95614.69;;;4.20;100.00
58385;BME280;44185;47.844;8.966;2023-04-25T08:36:10;95617.84;;;4.13;100.00
58385;BME280;44185;47.844;8.966;2023-04-25T08:38:36;95624.13;;;4.10;100.00
58385;BME280;44185;47.844;8.966;2023-04-25T08:41:01;95623.47;;;4.19;100.00
58385;BME280;44185;47.844;8.966;2023-04-25T08:43:29;95629.09;;;4.39;100.00
58385;BME280;44185;47.844;8.966;2023-04-25T08:45:58;95627.56;;;4.61;100.00
58385;BME280;44185;47.844;8.966;2023-04-25T08:48:26;95630.34;;;4.71;100.00
58385;BME280;44185;47.844;8.966;2023-04-25T08:50:53;95649.94;;;4.41;100.00
58385;BME280;44185;47.844;8.966;2023-04-25T08:53:27;95645.69;;;4.64;100.00
58385;BME280;44185;47.844;8.966;2023-04-25T08:55:53;95647.44;;;4.77;100.00
58385;BME280;44185;47.844;8.966;2023-04-25T08:58:20;95653.41;;;4.79;100.00
58385;BME280;44185;47.844;8.966;2023-04-25T09:00:48;95661.25;;;4.79;100.00
58385;BME280;44185;47.844;8.966;2023-04-25T09:03:13;95665.38;;;4.95;100.00
58385;BME280;44185;47.844;8.966;2023-04-25T09:05:40;95665.66;;;5.03;100.00
58385;BME280;44185;47.844;8.966;2023-04-25T09:08:05;95677.09;;;5.02;100.00
58385;BME280;44185;47.844;8.966;2023-04-25T09:10:31;95682.13;;;5.05;100.00
58385;BME280;44185;47.844;8.966;2023-04-25T09:13:04;95684.31;;;5.11;100.00
58385;BME280;44185;47.844;8.966;2023-04-25T09:15:30;95686.88;;;5.25;100.00
58385;BME280;44185;47.844;8.966;2023-04-25T09:17:57;95683.72;;;5.44;100.00
58385;BME280;44185;47.844;8.966;2023-04-25T09:20:22;95687.91;;;5.47;100.00
58385;BME280;44185;47.844;8.966;2023-04-25T09:22:48;95697.63;;;5.69;100.00
58385;BME280;44185;47.844;8.966;2023-04-25T09:25:14;95698.59;;;5.79;100.00
58385;BME280;44185;47.844;8.966;2023-04-25T09:27:49;95695.28;;;5.77;100.00
58385;BME280;44185;47.844;8.966;2023-04-25T09:30:16;95695.41;;;5.76;100.00
58385;BME280;44185;47.844;8.966;2023-04-25T09:32:42;95693.41;;;5.91;100.00
58385;BME280;44185;47.844;8.966;2023-04-25T09:35:10;95704.19;;;6.11;100.00
58385;BME280;44185;47.844;8.966;2023-04-25T09:37:35;95703.97;;;6.26;100.00
58385;BME280;44185;47.844;8.966;2023-04-25T09:40:05;95705.03;;;6.46;100.00
58385;BME280;44185;47.844;8.966;2023-04-25T09:42:31;95713.88;;;6.68;100.00
58385;BME280;44185;47.844;8.966;2023-04-25T09:44:57;95714.44;;;6.95;100.00
58385;BME280;44185;47.844;8.966;2023-04-25T09:47:25;95713.69;;;7.04;100.00
58385;BME280;44185;47.844;8.966;2023-04-25T09:49:51;95716.69;;;7.11;100.00
58385;BME280;44185;47.844;8.966;2023-04-25T09:52:20;95713.50;;;7.29;100.00
58385;BME280;44185;47.844;8.966;2023-04-25T09:54:48;95717.13;;;7.49;100.00
58385;BME280;44185;47.844;8.966;2023-04-25T09:57:14;95717.53;;;7.44;100.00
58385;BME280;44185;47.844;8.966;2023-04-25T09:59:43;95718.22;;;7.47;100.00
58385;BME280;44185;47.844;8.966;2023-04-25T10:02:11;95715.81;;;7.55;100.00
58385;BME280;44185;47.844;8.966;2023-04-25T10:04:37;95718.00;;;7.71;100.00
58385;BME280;44185;47.844;8.966;2023-04-25T10:07:05;95718.88;;;7.60;100.00
58385;BME280;44185;47.844;8.966;2023-04-25T10:09:33;95706.00;;;7.78;100.00
58385;BME280;44185;47.844;8.966;2023-04-25T10:11:59;95713.19;;;8.19;100.00
58385;BME280;44185;47.844;8.966;2023-04-25T10:14:24;95711.31;;;8.63;100.00
58385;BME280;44185;47.844;8.966;2023-04-25T10:16:51;95702.50;;;8.84;100.00
58385;BME280;44185;47.844;8.966;2023-04-25T10:19:17;95708.53;;;9.16;100.00
58385;BME280;44185;47.844;8.966;2023-04-25T10:21:48;95711.78;;;9.49;100.00
58385;BME280;44185;47.844;8.966;2023-04-25T10:24:15;95704.94;;;9.56;100.00
58385;BME280;44185;47.844;8.966;2023-04-25T10:26:42;95707.19;;;9.31;100.00
58385;BME280;44185;47.844;8.966;2023-04-25T10:29:09;95718.22;;;9.05;97.63
58385;BME280;44185;47.844;8.966;2023-04-25T10:31:44;95714.63;;;9.06;98.53
58385;BME280;44185;47.844;8.966;2023-04-25T10:34:10;95711.56;;;9.01;98.07
58385;BME280;44185;47.844;8.966;2023-04-25T10:36:36;95712.94;;;9.05;99.72
58385;BME280;44185;47.844;8.966;2023-04-25T10:39:04;95713.09;;;9.14;100.00
58385;BME280;44185;47.844;8.966;2023-04-25T10:41:29;95709.66;;;9.23;98.94
58385;BME280;44185;47.844;8.966;2023-04-25T10:44:00;95710.75;;;9.10;95.05
58385;BME280;44185;47.844;8.966;2023-04-25T10:46:27;95712.44;;;9.21;96.56
58385;BME280;44185;47.844;8.966;2023-04-25T10:48:54;95709.41;;;9.26;93.90
58385;BME280;44185;47.844;8.966;2023-04-25T10:51:22;95706.34;;;9.71;93.98
58385;BME280;44185;47.844;8.966;2023-04-25T10:53:57;95713.13;;;10.03;92.67
58385;BME280;44185;47.844;8.966;2023-04-25T10:56:23;95724.00;;;9.60;94.42
58385;BME280;44185;47.844;8.966;2023-04-25T10:58:50;95720.91;;;9.45;91.95
58385;BME280;44185;47.844;8.966;2023-04-25T11:01:20;95726.47;;;9.32;92.93
58385;BME280;44185;47.844;8.966;2023-04-25T11:03:46;95726.72;;;9.09;93.16
58385;BME280;44185;47.844;8.966;2023-04-25T11:06:20;95734.00;;;8.75;92.39
58385;BME280;44185;47.844;8.966;2023-04-25T11:08:48;95720.63;;;8.67;92.50
58385;BME280;44185;47.844;8.966;2023-04-25T11:11:14;95730.47;;;9.06;94.60
58385;BME280;44185;47.844;8.966;2023-04-25T11:13:40;95727.88;;;9.56;92.39
58385;BME280;44185;47.844;8.966;2023-04-25T11:16:07;95718.28;;;9.95;90.65
58385;BME280;44185;47.844;8.966;2023-04-25T11:18:33;95717.91;;;10.28;90.64
58385;BME280;44185;47.844;8.966;2023-04-25T11:20:59;95719.59;;;10.29;84.33
58385;BME280;44185;47.844;8.966;2023-04-25T11:23:25;95717.56;;;10.12;95.30
58385;BME280;44185;47.844;8.966;2023-04-25T11:25:51;95735.53;;;9.49;90.41
58385;BME280;44185;47.844;8.966;2023-04-25T11:28:20;95737.69;;;9.04;96.83
58385;BME280;44185;47.844;8.966;2023-04-25T11:30:47;95739.56;;;8.82;97.61
58385;BME280;44185;47.844;8.966;2023-04-25T11:33:13;95737.13;;;8.59;99.41
58385;BME280;44185;47.844;8.966;2023-04-25T11:35:41;95731.78;;;8.49;100.00
58385;BME280;44185;47.844;8.966;2023-04-25T11:38:07;95730.09;;;8.70;100.00
58385;BME280;44185;47.844;8.966;2023-04-25T11:40:32;95738.47;;;8.85;100.00
58385;BME280;44185;47.844;8.966;2023-04-25T11:43:00;95733.94;;;8.97;100.00
58385;BME280;44185;47.844;8.966;2023-04-25T11:45:26;95736.00;;;9.03;98.96
58385;BME280;44185;47.844;8.966;2023-04-25T11:47:52;95735.06;;;9.24;100.00
58385;BME280;44185;47.844;8.966;2023-04-25T11:50:17;95736.09;;;9.63;97.45
58385;BME280;44185;47.844;8.966;2023-04-25T11:52:46;95741.94;;;9.66;93.65
58385;BME280;44185;47.844;8.966;2023-04-25T11:55:14;95745.00;;;9.42;90.51
58385;BME280;44185;47.844;8.966;2023-04-25T11:57:40;95741.97;;;9.05;92.70
58385;BME280;44185;47.844;8.966;2023-04-25T12:00:12;95750.06;;;9.14;93.53
58385;BME280;44185;47.844;8.966;2023-04-25T12:02:40;95743.31;;;9.31;96.17
58385;BME280;44185;47.844;8.966;2023-04-25T12:05:06;95751.66;;;9.26;91.81
58385;BME280;44185;47.844;8.966;2023-04-25T12:07:32;95745.25;;;9.49;92.91
58385;BME280;44185;47.844;8.966;2023-04-25T12:09:59;95749.00;;;9.96;91.64
58385;BME280;44185;47.844;8.966;2023-04-25T12:12:27;95744.25;;;10.09;88.65
58385;BME280;44185;47.844;8.966;2023-04-25T12:14:52;95759.56;;;10.16;85.05
58385;BME280;44185;47.844;8.966;2023-04-25T12:17:18;95755.91;;;10.37;86.88
58385;BME280;44185;47.844;8.966;2023-04-25T12:19:46;95754.06;;;10.57;84.57
58385;BME280;44185;47.844;8.966;2023-04-25T12:22:19;95754.75;;;10.69;83.72
58385;BME280;44185;47.844;8.966;2023-04-25T12:24:45;95750.34;;;10.88;82.14
58385;BME280;44185;47.844;8.966;2023-04-25T12:27:14;95751.47;;;11.14;80.65
58385;BME280;44185;47.844;8.966;2023-04-25T12:29:50;95747.22;;;11.49;79.09
58385;BME280;44185;47.844;8.966;2023-04-25T12:32:16;95756.81;;;11.50;79.45
58385;BME280;44185;47.844;8.966;2023-04-25T12:34:41;95763.53;;;11.44;80.92
58385;BME280;44185;47.844;8.966;2023-04-25T12:37:07;95752.31;;;11.14;76.78
58385;BME280;44185;47.844;8.966;2023-04-25T12:39:32;95758.91;;;10.72;76.45
58385;BME280;44185;47.844;8.966;2023-04-25T12:41:57;95756.25;;;10.72;76.49
58385;BME280;44185;47.844;8.966;2023-04-25T12:44:25;95751.06;;;10.80;75.43
58385;BME280;44185;47.844;8.966;2023-04-25T12:46:50;95754.34;;;10.54;73.08
58385;BME280;44185;47.844;8.966;2023-04-25T12:49:16;95753.63;;;10.62;73.73
58385;BME280;44185;47.844;8.966;2023-04-25T12:51:41;95761.25;;;11.31;74.05
58385;BME280;44185;47.844;8.966;2023-04-25T12:54:07;95754.47;;;11.84;72.71
58385;BME280;44185;47.844;8.966;2023-04-25T12:56:33;95765.53;;;11.79;73.89
58385;BME280;44185;47.844;8.966;2023-04-25T12:58:58;95756.81;;;11.50;67.69